sensor_id;sensor_type;location;lat;lon;timestamp;temperature;humidity
69823;SHT31;57119;52.516;13.508;2022-12-18T00:00:42;-5.54;99.99
69823;SHT31;57119;52.516;13.508;2022-12-18T00:03:08;-5.54;99.99
69823;SHT31;57119;52.516;13.508;2022-12-18T00:05:33;-5.75;99.99
69823;SHT31;57119;52.516;13.508;2022-12-18T00:07:59;-5.81;99.99
69823;SHT31;57119;52.516;13.508;2022-12-18T00:10:24;-5.88;99.99
69823;SHT31;57119;52.516;13.508;2022-12-18T00:12:49;-5.86;99.99
69823;SHT31;57119;52.516;13.508;2022-12-18T00:15:15;-5.77;99.99
69823;SHT31;57119;52.516;13.508;2022-12-18T00:17:40;-5.78;99.99
69823;SHT31;57119;52.516;13.508;2022-12-18T00:20:06;-5.85;99.99
69823;SHT31;57119;52.516;13.508;2022-12-18T00:22:32;-5.79;99.99
69823;SHT31;57119;52.516;13.508;2022-12-18T00:24:57;-5.93;99.99
69823;SHT31;57119;52.516;13.508;2022-12-18T00:27:22;-5.99;99.99
69823;SHT31;57119;52.516;13.508;2022-12-18T00:29:48;-5.88;99.99
69823;SHT31;57119;52.516;13.508;2022-12-18T00:32:14;-5.98;99.99
69823;SHT31;57119;52.516;13.508;2022-12-18T00:34:39;-6.05;99.99
69823;SHT31;57119;52.516;13.508;2022-12-18T00:37:05;-6.02;99.99
69823;SHT31;57119;52.516;13.508;2022-12-18T00:39:30;-5.89;99.99
69823;SHT31;57119;52.516;13.508;2022-12-18T00:41:55;-5.88;99.99
69823;SHT31;57119;52.516;13.508;2022-12-18T00:44:39;-5.96;99.99
69823;SHT31;57119;52.516;13.508;2022-12-18T00:47:05;-5.99;99.99
69823;SHT31;57119;52.516;13.508;2022-12-18T00:49:30;-5.91;99.99
69823;SHT31;57119;52.516;13.508;2022-12-18T00:51:55;-6.00;99.99
69823;SHT31;57119;52.516;13.508;2022-12-18T00:54:21;-6.13;99.99
69823;SHT31;57119;52.516;13.508;2022-12-18T00:56:46;-6.00;99.99
69823;SHT31;57119;52.516;13.508;2022-12-18T00:59:12;-6.17;99.99
69823;SHT31;57119;52.516;13.508;2022-12-18T01:01:37;-6.26;99.99
69823;SHT31;57119;52.516;13.508;2022-12-18T01:04:03;-6.29;99.99
69823;SHT31;57119;52.516;13.508;2022-12-18T01:06:29;-6.21;99.99
69823;SHT31;57119;52.516;13.508;2022-12-18T01:08:55;-6.33;99.99
69823;SHT31;57119;52.516;13.508;2022-12-18T01:11:21;-6.19;99.99
69823;SHT31;57119;52.516;13.508;2022-12-18T01:13:47;-6.14;99.99
69823;SHT31;57119;52.516;13.508;2022-12-18T01:16:14;-6.23;99.99
69823;SHT31;57119;52.516;13.508;2022-12-18T01:18:39;-6.29;99.99
69823;SHT31;57119;52.516;13.508;2022-12-18T01:21:09;-6.34;99.99
69823;SHT31;57119;52.516;13.508;2022-12-18T01:23:35;-6.38;99.99
69823;SHT31;57119;52.516;13.508;2022-12-18T01:26:08;-6.38;99.99
69823;SHT31;57119;52.516;13.508;2022-12-18T01:28:34;-6.20;99.99
69823;SHT31;57119;52.516;13.508;2022-12-18T01:31:15;-6.21;99.99
69823;SHT31;57119;52.516;13.508;2022-12-18T01:33:41;-6.13;99.99
69823;SHT31;57119;52.516;13.508;2022-12-18T01:36:07;-6.10;99.99
69823;SHT31;57119;52.516;13.508;2022-12-18T01:38:32;-6.09;99.99
69823;SHT31;57119;52.516;13.508;2022-12-18T01:40:59;-6.13;99.99
69823;SHT31;57119;52.516;13.508;2022-12-18T01:43:53;-6.14;99.99
69823;SHT31;57119;52.516;13.508;2022-12-18T01:46:21;-6.09;99.99
69823;SHT31;57119;52.516;13.508;2022-12-18T01:48:52;-6.19;99.99
69823;SHT31;57119;52.516;13.508;2022-12-18T01:51:18;-6.07;99.99
69823;SHT31;57119;52.516;13.508;2022-12-18T01:53:45;-6.07;99.99
69823;SHT31;57119;52.516;13.508;2022-12-18T01:56:17;-6.03;99.99
69823;SHT31;57119;52.516;13.508;2022-12-18T02:01:11;-5.99;99.99
69823;SHT31;57119;52.516;13.508;2022-12-18T02:03:36;-5.83;99.99
69823;SHT31;57119;52.516;13.508;2022-12-18T02:06:30;-5.92;99.99
69823;SHT31;57119;52.516;13.508;2022-12-18T02:09:16;-5.88;99.99
69823;SHT31;57119;52.516;13.508;2022-12-18T02:12:00;-5.82;99.99
69823;SHT31;57119;52.516;13.508;2022-12-18T02:15:06;-5.96;99.99
69823;SHT31;57119;52.516;13.508;2022-12-18T02:17:39;-6.02;99.99
69823;SHT31;57119;52.516;13.508;2022-12-18T02:28:30;-6.09;99.99
69823;SHT31;57119;52.516;13.508;2022-12-18T02:30:59;-6.23;99.99
69823;SHT31;57119;52.516;13.508;2022-12-18T02:33:28;-6.17;99.99
69823;SHT31;57119;52.516;13.508;2022-12-18T02:35:55;-5.93;99.99
69823;SHT31;57119;52.516;13.508;2022-12-18T02:38:23;-6.09;99.99
69823;SHT31;57119;52.516;13.508;2022-12-18T02:40:49;-6.00;99.99
69823;SHT31;57119;52.516;13.508;2022-12-18T02:43:15;-6.05;99.99
69823;SHT31;57119;52.516;13.508;2022-12-18T02:45:50;-6.10;99.99
69823;SHT31;57119;52.516;13.508;2022-12-18T02:48:18;-6.20;99.99
69823;SHT31;57119;52.516;13.508;2022-12-18T02:51:02;-6.24;99.99
69823;SHT31;57119;52.516;13.508;2022-12-18T02:53:40;-6.12;99.99
69823;SHT31;57119;52.516;13.508;2022-12-18T02:56:15;-6.17;99.99
69823;SHT31;57119;52.516;13.508;2022-12-18T03:01:44;-6.26;99.99
69823;SHT31;57119;52.516;13.508;2022-12-18T03:04:23;-6.34;99.99
69823;SHT31;57119;52.516;13.508;2022-12-18T03:06:54;-6.58;99.99
69823;SHT31;57119;52.516;13.508;2022-12-18T03:09:48;-6.62;99.99
69823;SHT31;57119;52.516;13.508;2022-12-18T03:12:43;-6.51;99.99
69823;SHT31;57119;52.516;13.508;2022-12-18T03:15:18;-6.64;99.99
69823;SHT31;57119;52.516;13.508;2022-12-18T03:17:50;-6.78;99.99
69823;SHT31;57119;52.516;13.508;2022-12-18T03:20:20;-6.78;99.99
69823;SHT31;57119;52.516;13.508;2022-12-18T03:22:50;-6.72;99.99
69823;SHT31;57119;52.516;13.508;2022-12-18T03:25:17;-6.68;99.99
69823;SHT31;57119;52.516;13.508;2022-12-18T03:27:47;-6.55;99.99
69823;SHT31;57119;52.516;13.508;2022-12-18T03:30:14;-6.57;99.99
69823;SHT31;57119;52.516;13.508;2022-12-18T03:32:50;-6.62;99.99
69823;SHT31;57119;52.516;13.508;2022-12-18T03:35:21;-6.58;99.99
69823;SHT31;57119;52.516;13.508;2022-12-18T03:37:47;-6.74;99.99
69823;SHT31;57119;52.516;13.508;2022-12-18T03:40:13;-6.71;99.99
69823;SHT31;57119;52.516;13.508;2022-12-18T03:43:03;-6.74;99.99
69823;SHT31;57119;52.516;13.508;2022-12-18T03:45:41;-6.82;99.99
69823;SHT31;57119;52.516;13.508;2022-12-18T03:48:16;-6.98;99.99
69823;SHT31;57119;52.516;13.508;2022-12-18T03:50:56;-6.85;99.99
69823;SHT31;57119;52.516;13.508;2022-12-18T03:53:46;-7.05;99.99
69823;SHT31;57119;52.516;13.508;2022-12-18T03:56:15;-7.05;99.99
69823;SHT31;57119;52.516;13.508;2022-12-18T03:58:42;-6.99;99.99
69823;SHT31;57119;52.516;13.508;2022-12-18T04:01:11;-6.95;99.99
69823;SHT31;57119;52.516;13.508;2022-12-18T04:03:38;-6.93;99.99
69823;SHT31;57119;52.516;13.508;2022-12-18T04:06:05;-6.93;99.99
69823;SHT31;57119;52.516;13.508;2022-12-18T04:08:31;-6.92;99.99
69823;SHT31;57119;52.516;13.508;2022-12-18T04:10:58;-6.93;99.99
69823;SHT31;57119;52.516;13.508;2022-12-18T04:13:31;-6.89;99.99
69823;SHT31;57119;52.516;13.508;2022-12-18T04:15:57;-6.81;99.99
69823;SHT31;57119;52.516;13.508;2022-12-18T04:18:22;-6.74;99.99
69823;SHT31;57119;52.516;13.508;2022-12-18T04:20:47;-6.67;99.99
69823;SHT31;57119;52.516;13.508;2022-12-18T04:23:13;-6.79;99.99
69823;SHT31;57119;52.516;13.508;2022-12-18T04:25:38;-6.78;99.99
69823;SHT31;57119;52.516;13.508;2022-12-18T04:28:04;-6.77;99.99
69823;SHT31;57119;52.516;13.508;2022-12-18T04:30:30;-6.85;99.99
69823;SHT31;57119;52.516;13.508;2022-12-18T04:32:55;-6.77;99.99
69823;SHT31;57119;52.516;13.508;2022-12-18T04:35:21;-6.72;99.99
69823;SHT31;57119;52.516;13.508;2022-12-18T04:37:46;-6.81;99.99
69823;SHT31;57119;52.516;13.508;2022-12-18T04:40:12;-6.79;99.99
69823;SHT31;57119;52.516;13.508;2022-12-18T04:42:39;-6.84;99.99
69823;SHT31;57119;52.516;13.508;2022-12-18T04:45:04;-6.89;99.99
69823;SHT31;57119;52.516;13.508;2022-12-18T04:47:30;-6.84;99.99
69823;SHT31;57119;52.516;13.508;2022-12-18T04:49:55;-6.93;99.99
69823;SHT31;57119;52.516;13.508;2022-12-18T04:52:21;-6.93;99.99
69823;SHT31;57119;52.516;13.508;2022-12-18T04:54:46;-7.00;99.99
69823;SHT31;57119;52.516;13.508;2022-12-18T04:57:11;-7.16;99.99
69823;SHT31;57119;52.516;13.508;2022-12-18T04:59:37;-7.17;99.99
69823;SHT31;57119;52.516;13.508;2022-12-18T05:02:02;-7.06;99.99
69823;SHT31;57119;52.516;13.508;2022-12-18T05:04:28;-7.05;99.99
69823;SHT31;57119;52.516;13.508;2022-12-18T05:06:53;-7.05;99.99
69823;SHT31;57119;52.516;13.508;2022-12-18T05:09:18;-7.05;99.99
69823;SHT31;57119;52.516;13.508;2022-12-18T05:11:44;-7.00;99.99
69823;SHT31;57119;52.516;13.508;2022-12-18T05:14:09;-6.92;99.99
69823;SHT31;57119;52.516;13.508;2022-12-18T05:16:34;-7.06;99.99
69823;SHT31;57119;52.516;13.508;2022-12-18T05:19:00;-6.98;99.99
69823;SHT31;57119;52.516;13.508;2022-12-18T05:21:25;-6.93;99.99
69823;SHT31;57119;52.516;13.508;2022-12-18T05:23:50;-6.95;99.99
69823;SHT31;57119;52.516;13.508;2022-12-18T05:26:17;-7.00;99.99
69823;SHT31;57119;52.516;13.508;2022-12-18T05:28:43;-6.81;99.99
69823;SHT31;57119;52.516;13.508;2022-12-18T05:31:09;-6.82;99.99
69823;SHT31;57119;52.516;13.508;2022-12-18T05:33:35;-6.68;99.99
69823;SHT31;57119;52.516;13.508;2022-12-18T05:36:05;-6.67;99.99
69823;SHT31;57119;52.516;13.508;2022-12-18T05:38:32;-6.60;99.99
69823;SHT31;57119;52.516;13.508;2022-12-18T05:40:58;-6.67;99.99
69823;SHT31;57119;52.516;13.508;2022-12-18T05:43:24;-6.60;99.99
69823;SHT31;57119;52.516;13.508;2022-12-18T05:45:50;-6.64;99.99
69823;SHT31;57119;52.516;13.508;2022-12-18T05:48:16;-6.60;99.99
69823;SHT31;57119;52.516;13.508;2022-12-18T05:50:44;-6.65;99.99
69823;SHT31;57119;52.516;13.508;2022-12-18T05:53:11;-6.55;99.99
69823;SHT31;57119;52.516;13.508;2022-12-18T05:55:37;-6.61;99.99
69823;SHT31;57119;52.516;13.508;2022-12-18T05:58:04;-6.50;99.99
69823;SHT31;57119;52.516;13.508;2022-12-18T06:00:30;-6.52;99.99
69823;SHT31;57119;52.516;13.508;2022-12-18T06:02:57;-6.54;99.99
69823;SHT31;57119;52.516;13.508;2022-12-18T06:05:23;-6.69;99.99
69823;SHT31;57119;52.516;13.508;2022-12-18T06:07:48;-6.62;99.99
69823;SHT31;57119;52.516;13.508;2022-12-18T06:10:13;-6.65;99.99
69823;SHT31;57119;52.516;13.508;2022-12-18T06:12:39;-6.52;99.99
69823;SHT31;57119;52.516;13.508;2022-12-18T06:15:05;-6.65;99.99
69823;SHT31;57119;52.516;13.508;2022-12-18T06:17:31;-6.55;99.99
69823;SHT31;57119;52.516;13.508;2022-12-18T06:19:56;-6.57;99.99
69823;SHT31;57119;52.516;13.508;2022-12-18T06:22:22;-6.54;99.99
69823;SHT31;57119;52.516;13.508;2022-12-18T06:24:48;-6.58;99.99
69823;SHT31;57119;52.516;13.508;2022-12-18T06:27:13;-6.55;99.99
69823;SHT31;57119;52.516;13.508;2022-12-18T06:29:39;-6.45;99.99
69823;SHT31;57119;52.516;13.508;2022-12-18T06:32:04;-6.55;99.99
69823;SHT31;57119;52.516;13.508;2022-12-18T06:34:30;-6.55;99.99
69823;SHT31;57119;52.516;13.508;2022-12-18T06:36:56;-6.60;99.99
69823;SHT31;57119;52.516;13.508;2022-12-18T06:39:22;-6.58;99.99
69823;SHT31;57119;52.516;13.508;2022-12-18T06:41:47;-6.61;99.99
69823;SHT31;57119;52.516;13.508;2022-12-18T06:44:13;-6.47;99.99
69823;SHT31;57119;52.516;13.508;2022-12-18T06:46:38;-6.48;99.99
69823;SHT31;57119;52.516;13.508;2022-12-18T06:49:03;-6.55;99.99
69823;SHT31;57119;52.516;13.508;2022-12-18T06:51:29;-6.51;99.99
69823;SHT31;57119;52.516;13.508;2022-12-18T06:53:54;-6.54;99.99
69823;SHT31;57119;52.516;13.508;2022-12-18T06:56:20;-6.44;99.99
69823;SHT31;57119;52.516;13.508;2022-12-18T06:58:45;-6.48;99.99
69823;SHT31;57119;52.516;13.508;2022-12-18T07:01:12;-6.55;99.99
69823;SHT31;57119;52.516;13.508;2022-12-18T07:03:38;-6.50;99.99
69823;SHT31;57119;52.516;13.508;2022-12-18T07:06:04;-6.57;99.99
69823;SHT31;57119;52.516;13.508;2022-12-18T07:08:30;-6.50;99.99
69823;SHT31;57119;52.516;13.508;2022-12-18T07:10:55;-6.41;99.99
69823;SHT31;57119;52.516;13.508;2022-12-18T07:13:21;-6.19;99.99
69823;SHT31;57119;52.516;13.508;2022-12-18T07:15:46;-6.21;99.99
69823;SHT31;57119;52.516;13.508;2022-12-18T07:18:12;-6.26;99.99
69823;SHT31;57119;52.516;13.508;2022-12-18T07:20:37;-6.37;99.99
69823;SHT31;57119;52.516;13.508;2022-12-18T07:23:03;-6.33;99.99
69823;SHT31;57119;52.516;13.508;2022-12-18T07:25:29;-6.24;99.99
69823;SHT31;57119;52.516;13.508;2022-12-18T07:27:54;-6.37;99.99
69823;SHT31;57119;52.516;13.508;2022-12-18T07:30:19;-6.30;99.99
69823;SHT31;57119;52.516;13.508;2022-12-18T07:32:45;-6.38;99.99
69823;SHT31;57119;52.516;13.508;2022-12-18T07:35:10;-6.31;99.99
69823;SHT31;57119;52.516;13.508;2022-12-18T07:37:35;-6.34;99.99
69823;SHT31;57119;52.516;13.508;2022-12-18T07:40:01;-6.44;99.99
69823;SHT31;57119;52.516;13.508;2022-12-18T07:42:26;-6.50;99.99
69823;SHT31;57119;52.516;13.508;2022-12-18T07:45:01;-6.37;99.99
69823;SHT31;57119;52.516;13.508;2022-12-18T07:47:28;-6.40;99.99
69823;SHT31;57119;52.516;13.508;2022-12-18T07:49:56;-6.24;99.99
69823;SHT31;57119;52.516;13.508;2022-12-18T07:52:22;-6.33;99.99
69823;SHT31;57119;52.516;13.508;2022-12-18T07:54:47;-6.41;99.99
69823;SHT31;57119;52.516;13.508;2022-12-18T07:57:15;-6.34;99.99
69823;SHT31;57119;52.516;13.508;2022-12-18T07:59:41;-6.41;99.99
69823;SHT31;57119;52.516;13.508;2022-12-18T08:02:06;-6.38;99.99
69823;SHT31;57119;52.516;13.508;2022-12-18T08:04:35;-6.38;99.99
69823;SHT31;57119;52.516;13.508;2022-12-18T08:07:00;-6.31;99.99
69823;SHT31;57119;52.516;13.508;2022-12-18T08:09:25;-6.29;99.99
69823;SHT31;57119;52.516;13.508;2022-12-18T08:11:51;-6.42;99.99
69823;SHT31;57119;52.516;13.508;2022-12-18T08:14:16;-6.45;99.99
69823;SHT31;57119;52.516;13.508;2022-12-18T08:16:41;-6.55;99.99
69823;SHT31;57119;52.516;13.508;2022-12-18T08:19:10;-6.58;99.99
69823;SHT31;57119;52.516;13.508;2022-12-18T08:21:35;-6.55;99.99
69823;SHT31;57119;52.516;13.508;2022-12-18T08:24:01;-6.54;99.99
69823;SHT31;57119;52.516;13.508;2022-12-18T08:26:29;-6.52;99.99
69823;SHT31;57119;52.516;13.508;2022-12-18T08:28:55;-6.57;99.99
69823;SHT31;57119;52.516;13.508;2022-12-18T08:31:22;-6.52;99.99
69823;SHT31;57119;52.516;13.508;2022-12-18T08:33:49;-6.33;99.99
69823;SHT31;57119;52.516;13.508;2022-12-18T08:36:15;-6.37;99.99
69823;SHT31;57119;52.516;13.508;2022-12-18T08:38:41;-6.34;99.99
69823;SHT31;57119;52.516;13.508;2022-12-18T08:41:09;-6.34;99.99
69823;SHT31;57119;52.516;13.508;2022-12-18T08:43:35;-6.21;99.99
69823;SHT31;57119;52.516;13.508;2022-12-18T08:46:21;-6.05;99.99
69823;SHT31;57119;52.516;13.508;2022-12-18T08:48:47;-6.03;99.99
69823;SHT31;57119;52.516;13.508;2022-12-18T08:51:12;-6.00;99.99
69823;SHT31;57119;52.516;13.508;2022-12-18T08:53:38;-5.96;99.99
69823;SHT31;57119;52.516;13.508;2022-12-18T08:56:04;-5.85;99.99
69823;SHT31;57119;52.516;13.508;2022-12-18T08:58:30;-5.92;99.99
69823;SHT31;57119;52.516;13.508;2022-12-18T09:01:00;-5.72;99.99
69823;SHT31;57119;52.516;13.508;2022-12-18T09:03:27;-5.83;99.99
69823;SHT31;57119;52.516;13.508;2022-12-18T09:05:52;-5.95;99.99
69823;SHT31;57119;52.516;13.508;2022-12-18T09:08:17;-5.81;99.99
69823;SHT31;57119;52.516;13.508;2022-12-18T09:10:47;-5.65;99.99
69823;SHT31;57119;52.516;13.508;2022-12-18T09:13:13;-5.82;99.99
69823;SHT31;57119;52.516;13.508;2022-12-18T09:15:48;-5.77;99.99
69823;SHT31;57119;52.516;13.508;2022-12-18T09:18:16;-5.74;99.99
69823;SHT31;57119;52.516;13.508;2022-12-18T09:20:43;-5.77;99.99
69823;SHT31;57119;52.516;13.508;2022-12-18T09:23:09;-5.54;99.99
69823;SHT31;57119;52.516;13.508;2022-12-18T09:25:35;-5.41;99.99
69823;SHT31;57119;52.516;13.508;2022-12-18T09:28:02;-5.51;99.99
69823;SHT31;57119;52.516;13.508;2022-12-18T09:30:28;-5.47;99.99
69823;SHT31;57119;52.516;13.508;2022-12-18T09:32:55;-5.51;99.99
69823;SHT31;57119;52.516;13.508;2022-12-18T09:35:20;-5.28;99.99
69823;SHT31;57119;52.516;13.508;2022-12-18T09:37:46;-5.46;99.99
69823;SHT31;57119;52.516;13.508;2022-12-18T09:40:16;-5.20;99.99
69823;SHT31;57119;52.516;13.508;2022-12-18T09:42:46;-5.17;99.99
69823;SHT31;57119;52.516;13.508;2022-12-18T09:45:14;-5.12;99.99
69823;SHT31;57119;52.516;13.508;2022-12-18T09:47:42;-5.22;99.99
69823;SHT31;57119;52.516;13.508;2022-12-18T09:50:24;-5.30;99.99
69823;SHT31;57119;52.516;13.508;2022-12-18T09:52:56;-5.26;99.99
69823;SHT31;57119;52.516;13.508;2022-12-18T09:55:32;-5.13;99.99
69823;SHT31;57119;52.516;13.508;2022-12-18T09:58:06;-5.22;99.99
69823;SHT31;57119;52.516;13.508;2022-12-18T10:00:32;-5.23;99.99
69823;SHT31;57119;52.516;13.508;2022-12-18T10:03:08;-5.12;99.99
69823;SHT31;57119;52.516;13.508;2022-12-18T10:05:59;-5.09;99.99
69823;SHT31;57119;52.516;13.508;2022-12-18T10:09:01;-4.96;99.99
69823;SHT31;57119;52.516;13.508;2022-12-18T10:19:20;-4.62;99.99
69823;SHT31;57119;52.516;13.508;2022-12-18T10:24:24;-4.54;99.99
69823;SHT31;57119;52.516;13.508;2022-12-18T10:27:04;-4.62;99.99
69823;SHT31;57119;52.516;13.508;2022-12-18T10:29:33;-4.58;99.99
69823;SHT31;57119;52.516;13.508;2022-12-18T10:31:59;-4.65;99.99
69823;SHT31;57119;52.516;13.508;2022-12-18T10:34:24;-4.54;99.99
69823;SHT31;57119;52.516;13.508;2022-12-18T10:36:50;-4.71;99.99
69823;SHT31;57119;52.516;13.508;2022-12-18T10:39:18;-4.61;99.99
69823;SHT31;57119;52.516;13.508;2022-12-18T10:41:43;-4.61;99.99
69823;SHT31;57119;52.516;13.508;2022-12-18T10:44:21;-4.64;99.99
69823;SHT31;57119;52.516;13.508;2022-12-18T10:46:54;-4.48;99.99
69823;SHT31;57119;52.516;13.508;2022-12-18T10:49:26;-4.21;99.99
69823;SHT31;57119;52.516;13.508;2022-12-18T10:52:07;-4.20;99.99
69823;SHT31;57119;52.516;13.508;2022-12-18T10:54:36;-4.07;99.99
69823;SHT31;57119;52.516;13.508;2022-12-18T10:57:32;-4.18;99.99
69823;SHT31;57119;52.516;13.508;2022-12-18T11:00:13;-4.10;99.99
69823;SHT31;57119;52.516;13.508;2022-12-18T11:02:44;-4.35;99.99
69823;SHT31;57119;52.516;13.508;2022-12-18T11:05:30;-4.34;99.99
69823;SHT31;57119;52.516;13.508;2022-12-18T11:07:57;-4.48;99.99
69823;SHT31;57119;52.516;13.508;2022-12-18T11:10:28;-4.50;99.99
69823;SHT31;57119;52.516;13.508;2022-12-18T11:12:54;-4.43;99.99
69823;SHT31;57119;52.516;13.508;2022-12-18T11:15:22;-4.58;99.99
69823;SHT31;57119;52.516;13.508;2022-12-18T11:17:50;-4.48;99.99
69823;SHT31;57119;52.516;13.508;2022-12-18T11:20:27;-4.48;99.99
69823;SHT31;57119;52.516;13.508;2022-12-18T11:23:04;-4.51;99.99
69823;SHT31;57119;52.516;13.508;2022-12-18T11:25:31;-4.24;99.99
69823;SHT31;57119;52.516;13.508;2022-12-18T11:30:45;-4.24;99.99
69823;SHT31;57119;52.516;13.508;2022-12-18T11:33:15;-4.18;99.99
69823;SHT31;57119;52.516;13.508;2022-12-18T11:35:51;-4.18;99.99
69823;SHT31;57119;52.516;13.508;2022-12-18T11:38:23;-4.04;99.99
69823;SHT31;57119;52.516;13.508;2022-12-18T11:41:46;-4.07;99.99
69823;SHT31;57119;52.516;13.508;2022-12-18T11:44:25;-4.33;99.99
69823;SHT31;57119;52.516;13.508;2022-12-18T11:46:58;-4.33;99.99
69823;SHT31;57119;52.516;13.508;2022-12-18T11:49:29;-4.35;99.99
69823;SHT31;57119;52.516;13.508;2022-12-18T11:52:18;-4.17;99.99
69823;SHT31;57119;52.516;13.508;2022-12-18T11:54:44;-4.44;99.99
69823;SHT31;57119;52.516;13.508;2022-12-18T12:00:16;-4.28;99.99
69823;SHT31;57119;52.516;13.508;2022-12-18T12:06:15;-4.41;99.99
69823;SHT31;57119;52.516;13.508;2022-12-18T12:09:05;-4.51;99.99
69823;SHT31;57119;52.516;13.508;2022-12-18T12:14:21;-4.51;99.99
69823;SHT31;57119;52.516;13.508;2022-12-18T12:17:14;-4.48;99.99
69823;SHT31;57119;52.516;13.508;2022-12-18T12:23:37;-4.37;99.99
69823;SHT31;57119;52.516;13.508;2022-12-18T12:26:08;-4.38;99.99
69823;SHT31;57119;52.516;13.508;2022-12-18T12:29:01;-4.33;99.99
69823;SHT31;57119;52.516;13.508;2022-12-18T12:39:54;-4.25;99.99
69823;SHT31;57119;52.516;13.508;2022-12-18T12:42:39;-4.18;99.99
69823;SHT31;57119;52.516;13.508;2022-12-18T12:45:39;-4.14;99.99
69823;SHT31;57119;52.516;13.508;2022-12-18T12:48:24;-4.00;99.99
69823;SHT31;57119;52.516;13.508;2022-12-18T12:50:53;-4.07;99.76
69823;SHT31;57119;52.516;13.508;2022-12-18T12:53:26;-4.20;99.99
69823;SHT31;57119;52.516;13.508;2022-12-18T12:55:54;-4.23;99.75
69823;SHT31;57119;52.516;13.508;2022-12-18T13:07:14;-3.95;99.99
69823;SHT31;57119;52.516;13.508;2022-12-18T13:20:44;-3.93;99.99
69823;SHT31;57119;52.516;13.508;2022-12-18T13:28:22;-3.99;99.99
69823;SHT31;57119;52.516;13.508;2022-12-18T13:30:52;-4.07;99.99
69823;SHT31;57119;52.516;13.508;2022-12-18T13:33:37;-4.00;99.99
69823;SHT31;57119;52.516;13.508;2022-12-18T13:36:12;-4.04;99.99
69823;SHT31;57119;52.516;13.508;2022-12-18T13:38:38;-4.16;99.99
69823;SHT31;57119;52.516;13.508;2022-12-18T13:41:22;-4.20;99.99
69823;SHT31;57119;52.516;13.508;2022-12-18T13:43:50;-4.17;99.99
69823;SHT31;57119;52.516;13.508;2022-12-18T13:51:35;-4.30;99.99
69823;SHT31;57119;52.516;13.508;2022-12-18T13:54:04;-4.31;99.99
69823;SHT31;57119;52.516;13.508;2022-12-18T13:56:32;-4.31;99.99
69823;SHT31;57119;52.516;13.508;2022-12-18T13:59:21;-4.37;99.99
69823;SHT31;57119;52.516;13.508;2022-12-18T14:04:19;-4.23;99.99
69823;SHT31;57119;52.516;13.508;2022-12-18T14:06:46;-4.28;99.99
69823;SHT31;57119;52.516;13.508;2022-12-18T14:09:14;-4.34;99.99
69823;SHT31;57119;52.516;13.508;2022-12-18T14:11:40;-4.28;99.99
69823;SHT31;57119;52.516;13.508;2022-12-18T14:14:14;-4.25;99.99
69823;SHT31;57119;52.516;13.508;2022-12-18T14:16:40;-4.11;99.99
69823;SHT31;57119;52.516;13.508;2022-12-18T14:19:13;-4.27;99.99
69823;SHT31;57119;52.516;13.508;2022-12-18T14:21:40;-4.27;99.99
69823;SHT31;57119;52.516;13.508;2022-12-18T14:26:33;-4.20;99.99
69823;SHT31;57119;52.516;13.508;2022-12-18T14:29:17;-4.21;99.99
69823;SHT31;57119;52.516;13.508;2022-12-18T14:31:43;-4.25;99.99
69823;SHT31;57119;52.516;13.508;2022-12-18T14:34:15;-4.25;99.99
69823;SHT31;57119;52.516;13.508;2022-12-18T14:36:40;-4.31;99.99
69823;SHT31;57119;52.516;13.508;2022-12-18T14:39:17;-4.27;99.99
69823;SHT31;57119;52.516;13.508;2022-12-18T14:41:42;-4.23;99.99
69823;SHT31;57119;52.516;13.508;2022-12-18T14:44:11;-4.24;99.99
69823;SHT31;57119;52.516;13.508;2022-12-18T14:46:39;-4.24;99.99
69823;SHT31;57119;52.516;13.508;2022-12-18T14:51:56;-4.28;99.99
69823;SHT31;57119;52.516;13.508;2022-12-18T14:54:25;-4.27;99.99
69823;SHT31;57119;52.516;13.508;2022-12-18T14:57:18;-4.30;99.99
69823;SHT31;57119;52.516;13.508;2022-12-18T14:59:45;-4.33;99.99
69823;SHT31;57119;52.516;13.508;2022-12-18T15:02:26;-4.25;99.99
69823;SHT31;57119;52.516;13.508;2022-12-18T15:07:46;-4.37;99.99
69823;SHT31;57119;52.516;13.508;2022-12-18T15:12:44;-4.41;99.99
69823;SHT31;57119;52.516;13.508;2022-12-18T15:20:44;-4.43;99.99
69823;SHT31;57119;52.516;13.508;2022-12-18T15:23:34;-4.27;99.99
69823;SHT31;57119;52.516;13.508;2022-12-18T15:26:11;-4.30;99.99
69823;SHT31;57119;52.516;13.508;2022-12-18T15:28:50;-4.33;99.99
69823;SHT31;57119;52.516;13.508;2022-12-18T15:33:59;-4.34;99.99
69823;SHT31;57119;52.516;13.508;2022-12-18T15:36:29;-4.31;99.99
69823;SHT31;57119;52.516;13.508;2022-12-18T15:38:56;-4.28;99.99
69823;SHT31;57119;52.516;13.508;2022-12-18T15:41:23;-4.27;99.99
69823;SHT31;57119;52.516;13.508;2022-12-18T15:43:50;-4.28;99.99
69823;SHT31;57119;52.516;13.508;2022-12-18T15:46:21;-4.28;99.99
69823;SHT31;57119;52.516;13.508;2022-12-18T15:48:52;-4.40;99.99
69823;SHT31;57119;52.516;13.508;2022-12-18T15:51:20;-4.34;99.99
69823;SHT31;57119;52.516;13.508;2022-12-18T15:53:50;-4.34;99.99
69823;SHT31;57119;52.516;13.508;2022-12-18T15:56:16;-4.37;99.99
69823;SHT31;57119;52.516;13.508;2022-12-18T15:59:01;-4.37;99.99
69823;SHT31;57119;52.516;13.508;2022-12-18T16:01:29;-4.40;99.99
69823;SHT31;57119;52.516;13.508;2022-12-18T16:03:54;-4.34;99.99
69823;SHT31;57119;52.516;13.508;2022-12-18T16:06:21;-4.38;99.99
69823;SHT31;57119;52.516;13.508;2022-12-18T16:08:46;-4.27;99.99
69823;SHT31;57119;52.516;13.508;2022-12-18T16:14:24;-4.41;99.99
69823;SHT31;57119;52.516;13.508;2022-12-18T16:16:53;-4.44;99.99
69823;SHT31;57119;52.516;13.508;2022-12-18T16:19:18;-4.50;99.99
69823;SHT31;57119;52.516;13.508;2022-12-18T16:21:45;-4.47;99.99
69823;SHT31;57119;52.516;13.508;2022-12-18T16:24:19;-4.51;99.99
69823;SHT31;57119;52.516;13.508;2022-12-18T16:26:47;-4.48;99.99
69823;SHT31;57119;52.516;13.508;2022-12-18T16:29:13;-4.48;99.99
69823;SHT31;57119;52.516;13.508;2022-12-18T16:31:38;-4.53;99.99
69823;SHT31;57119;52.516;13.508;2022-12-18T16:34:17;-4.41;99.99
69823;SHT31;57119;52.516;13.508;2022-12-18T16:36:44;-4.44;99.99
69823;SHT31;57119;52.516;13.508;2022-12-18T16:39:09;-4.38;99.99
69823;SHT31;57119;52.516;13.508;2022-12-18T16:41:35;-4.51;99.99
69823;SHT31;57119;52.516;13.508;2022-12-18T16:44:01;-4.43;99.99
69823;SHT31;57119;52.516;13.508;2022-12-18T16:46:26;-4.44;99.99
69823;SHT31;57119;52.516;13.508;2022-12-18T16:48:51;-4.43;99.99
69823;SHT31;57119;52.516;13.508;2022-12-18T16:51:17;-4.50;99.99
69823;SHT31;57119;52.516;13.508;2022-12-18T16:53:42;-4.53;99.99
69823;SHT31;57119;52.516;13.508;2022-12-18T16:56:07;-4.60;99.99
69823;SHT31;57119;52.516;13.508;2022-12-18T16:58:33;-4.54;99.99
69823;SHT31;57119;52.516;13.508;2022-12-18T17:00:59;-4.54;99.99
69823;SHT31;57119;52.516;13.508;2022-12-18T17:03:24;-4.60;99.99
69823;SHT31;57119;52.516;13.508;2022-12-18T17:05:50;-4.65;99.99
69823;SHT31;57119;52.516;13.508;2022-12-18T17:08:15;-4.65;99.99
69823;SHT31;57119;52.516;13.508;2022-12-18T17:10:40;-4.68;99.99
69823;SHT31;57119;52.516;13.508;2022-12-18T17:13:06;-4.71;99.99